Sunday, February 25, 2018, 3:39 AM GMT
Back to Local

CYTR, Trenton, Ont.

Location: , , Canada Lat: 44.117
Local Time: 3:39 AM GMT ( 3:39 GMT) Lon: -77.533
Time Zone: GMT Elev: 278 ft

Show me the last for .
Show Decoded

2018-02-25 03:00 METAR CYTR 250300Z 08005KT 15SM OVC120 01/M03 A3020 RMK AS8 SLP232 =
2018-02-25 02:00 METAR CYTR 250200Z 09006KT 15SM OVC032 02/M01 A3021 RMK SC8 SLP236 =
2018-02-25 01:00 METAR CYTR 250100Z 09004KT 15SM BKN032 03/M01 A3023 RMK SC7 SLP240 =
2018-02-25 00:00 METAR CYTR 250000Z 09004KT 15SM BKN032 03/M01 A3021 RMK SC7 SLP235 =
2018-02-24 23:00 METAR CYTR 242300Z 07004KT 15SM BKN034 BKN240 04/M01 A3019 RMK SC7CI1 SLP227 =
2018-02-24 22:00 METAR CYTR 242200Z 11003KT 15SM BKN032 BKN240 05/M02 A3019 RMK SC7CI1 SLP226 =
2018-02-24 21:00 METAR CYTR 242100Z 18002KT 15SM SCT030 BKN240 05/M01 A3020 RMK SC4CI3 SLP232 =
2018-02-24 20:00 METAR CYTR 242000Z 34003KT 15SM SCT030 SCT120 BKN220 OVC240 05/M01 A3021 RMK
                 SC3AC1CS2CI2 HALO SLP232 =
2018-02-24 19:00 METAR CYTR 241900Z 35004KT 15SM SCT028 SCT120 OVC220 06/M01 A3020 RMK SC3AC1CS5
                 HALO SLP232 =
2018-02-24 18:00 METAR CYTR 241800Z 30004KT 15SM BKN028 BKN120 OVC200 05/M00 A3022 RMK SC6AC1CS2
                 SLP237 =
2018-02-24 17:00 METAR CYTR 241700Z CCA 33004KT 15SM FEW030 SCT200 OVC220 04/M01 A3023 RMK
                 SC1CS3CI4 HALO SLP239 =
2018-02-24 16:00 METAR CYTR 241600Z 31007KT 15SM FEW030 FEW200 OVC220 04/M01 A3024 RMK CF1CS2CI6
                 SLP244 =
2018-02-24 15:00 METAR CYTR 241500Z CCA 28008KT 15SM FEW030 SCT200 OVC220 03/M01 A3024 RMK
                 SC1CS3CI5 HALO SLP245 =
2018-02-24 14:00 METAR CYTR 241400Z 27005KT 15SM FEW031 OVC250 03/M01 A3023 RMK SC2CI6 SLP242 =
2018-02-24 13:00 METAR CYTR 241300Z 26007KT 15SM SCT027 BKN250 02/M01 A3023 RMK SC3CI4 SLP240 =
2018-02-24 12:00 METAR CYTR 241200Z 23005KT 15SM SCT023 BKN250 02/M00 A3021 RMK SC4CI3 SLP236 =
2018-02-24 11:00 METAR CYTR 241100Z 23006KT 15SM SCT037 02/M00 A3019 RMK SC3 SLP226 =
2018-02-24 10:00 METAR CYTR 241000Z 24006KT 15SM SCT035 02/M00 A3017 RMK SC4 SLP219 =
2018-02-24 09:00 METAR CYTR 240900Z 26007KT 15SM BKN035 02/M00 A3016 RMK SC6 SLP215 =
2018-02-24 08:00 METAR CYTR 240800Z 28014KT 15SM SCT024 03/00 A3014 RMK SC3 SLP210 =
2018-02-24 07:00 METAR CYTR 240700Z 24006KT 8SM OVC018 04/03 A3012 RMK SC8 SLP202 =
2018-02-24 06:34 METAR CYTR 240634Z 24007KT 7SM OVC018 04/03 A3011 RMK SC8 SLP200 =
2018-02-24 06:00 METAR CYTR 240600Z 22006KT 4SM BR OVC018 03/03 A3010 RMK SC8 SLP197 =
2018-02-24 05:00 METAR CYTR 240500Z 22008KT 6SM BR OVC029 04/04 A3008 RMK SC8 SLP191 =
2018-02-24 04:00 METAR CYTR 240400Z 23005KT 7SM BKN012 OVC029 04/04 A3007 RMK SF6SC2 SLP188 =

Support USWX by starting your Amazon purchase here.